sensor_id;sensor_type;location;lat;lon;timestamp;P1;durP1;ratioP1;P2;durP2;ratioP2
59062;SDS011;44851;45.648;9.004;2023-04-06T00:00:21;14.20;;;10.93;;
59062;SDS011;44851;45.648;9.004;2023-04-06T00:02:50;13.03;;;10.73;;
59062;SDS011;44851;45.648;9.004;2023-04-06T00:05:17;13.30;;;11.33;;
59062;SDS011;44851;45.648;9.004;2023-04-06T00:07:42;12.27;;;11.03;;
59062;SDS011;44851;45.648;9.004;2023-04-06T00:10:08;11.47;;;10.37;;
59062;SDS011;44851;45.648;9.004;2023-04-06T00:12:34;12.53;;;10.50;;
59062;SDS011;44851;45.648;9.004;2023-04-06T00:14:59;11.33;;;10.13;;
59062;SDS011;44851;45.648;9.004;2023-04-06T00:17:26;11.40;;;10.27;;
59062;SDS011;44851;45.648;9.004;2023-04-06T00:19:51;11.57;;;10.37;;
59062;SDS011;44851;45.648;9.004;2023-04-06T00:22:17;12.00;;;9.77;;
59062;SDS011;44851;45.648;9.004;2023-04-06T00:24:42;11.30;;;10.13;;
59062;SDS011;44851;45.648;9.004;2023-04-06T00:27:08;10.83;;;9.60;;
59062;SDS011;44851;45.648;9.004;2023-04-06T00:29:33;10.70;;;9.60;;
59062;SDS011;44851;45.648;9.004;2023-04-06T00:31:58;10.63;;;9.50;;
59062;SDS011;44851;45.648;9.004;2023-04-06T00:34:24;9.43;;;8.43;;
59062;SDS011;44851;45.648;9.004;2023-04-06T00:36:49;11.07;;;9.20;;
59062;SDS011;44851;45.648;9.004;2023-04-06T00:39:15;11.00;;;8.63;;
59062;SDS011;44851;45.648;9.004;2023-04-06T00:41:41;11.07;;;8.70;;
59062;SDS011;44851;45.648;9.004;2023-04-06T00:44:11;10.37;;;9.27;;
59062;SDS011;44851;45.648;9.004;2023-04-06T00:46:37;12.53;;;9.80;;
59062;SDS011;44851;45.648;9.004;2023-04-06T00:49:02;11.03;;;9.30;;
59062;SDS011;44851;45.648;9.004;2023-04-06T00:51:27;10.83;;;9.00;;
59062;SDS011;44851;45.648;9.004;2023-04-06T00:53:53;11.30;;;8.50;;
59062;SDS011;44851;45.648;9.004;2023-04-06T00:56:19;10.60;;;9.03;;
59062;SDS011;44851;45.648;9.004;2023-04-06T00:58:44;10.70;;;9.03;;
59062;SDS011;44851;45.648;9.004;2023-04-06T01:01:10;9.33;;;8.43;;
59062;SDS011;44851;45.648;9.004;2023-04-06T01:03:35;10.80;;;8.20;;
59062;SDS011;44851;45.648;9.004;2023-04-06T01:06:01;9.97;;;8.37;;
59062;SDS011;44851;45.648;9.004;2023-04-06T01:08:26;9.97;;;8.97;;
59062;SDS011;44851;45.648;9.004;2023-04-06T01:10:52;9.20;;;8.30;;
59062;SDS011;44851;45.648;9.004;2023-04-06T01:13:17;9.10;;;8.00;;
59062;SDS011;44851;45.648;9.004;2023-04-06T01:15:42;9.10;;;8.17;;
59062;SDS011;44851;45.648;9.004;2023-04-06T01:18:08;9.77;;;8.33;;
59062;SDS011;44851;45.648;9.004;2023-04-06T01:20:35;9.60;;;8.60;;
59062;SDS011;44851;45.648;9.004;2023-04-06T01:23:01;10.60;;;8.63;;
59062;SDS011;44851;45.648;9.004;2023-04-06T01:25:26;9.90;;;7.77;;
59062;SDS011;44851;45.648;9.004;2023-04-06T01:27:51;10.20;;;8.57;;
59062;SDS011;44851;45.648;9.004;2023-04-06T01:30:17;10.27;;;7.73;;
59062;SDS011;44851;45.648;9.004;2023-04-06T01:32:43;10.03;;;7.90;;
59062;SDS011;44851;45.648;9.004;2023-04-06T01:35:08;9.57;;;8.57;;
59062;SDS011;44851;45.648;9.004;2023-04-06T01:37:33;11.43;;;8.33;;
59062;SDS011;44851;45.648;9.004;2023-04-06T01:39:59;9.20;;;8.30;;
59062;SDS011;44851;45.648;9.004;2023-04-06T01:42:25;9.43;;;8.53;;
59062;SDS011;44851;45.648;9.004;2023-04-06T01:44:51;8.63;;;7.83;;
59062;SDS011;44851;45.648;9.004;2023-04-06T01:47:16;10.20;;;8.50;;
59062;SDS011;44851;45.648;9.004;2023-04-06T01:49:42;8.97;;;8.07;;
59062;SDS011;44851;45.648;9.004;2023-04-06T01:52:07;9.10;;;8.17;;
59062;SDS011;44851;45.648;9.004;2023-04-06T01:54:32;9.50;;;8.07;;
59062;SDS011;44851;45.648;9.004;2023-04-06T01:56:58;9.50;;;7.87;;
59062;SDS011;44851;45.648;9.004;2023-04-06T01:59:23;9.47;;;8.47;;
59062;SDS011;44851;45.648;9.004;2023-04-06T02:01:49;9.67;;;8.40;;
59062;SDS011;44851;45.648;9.004;2023-04-06T02:04:14;9.30;;;8.37;;
59062;SDS011;44851;45.648;9.004;2023-04-06T02:06:40;8.67;;;7.77;;
59062;SDS011;44851;45.648;9.004;2023-04-06T02:09:06;10.10;;;7.80;;
59062;SDS011;44851;45.648;9.004;2023-04-06T02:11:31;9.07;;;8.00;;
59062;SDS011;44851;45.648;9.004;2023-04-06T02:13:56;9.17;;;8.10;;
59062;SDS011;44851;45.648;9.004;2023-04-06T02:16:22;8.43;;;7.63;;
59062;SDS011;44851;45.648;9.004;2023-04-06T02:18:47;9.90;;;8.90;;
59062;SDS011;44851;45.648;9.004;2023-04-06T02:21:14;9.67;;;8.67;;
59062;SDS011;44851;45.648;9.004;2023-04-06T02:23:42;8.77;;;7.93;;
59062;SDS011;44851;45.648;9.004;2023-04-06T02:26:07;10.47;;;8.27;;
59062;SDS011;44851;45.648;9.004;2023-04-06T02:28:33;8.83;;;7.93;;
59062;SDS011;44851;45.648;9.004;2023-04-06T02:30:58;9.23;;;8.17;;
59062;SDS011;44851;45.648;9.004;2023-04-06T02:33:24;9.93;;;8.97;;
59062;SDS011;44851;45.648;9.004;2023-04-06T02:35:50;9.83;;;8.60;;
59062;SDS011;44851;45.648;9.004;2023-04-06T02:38:15;10.67;;;8.53;;
59062;SDS011;44851;45.648;9.004;2023-04-06T02:40:40;10.03;;;9.03;;
59062;SDS011;44851;45.648;9.004;2023-04-06T02:43:06;10.27;;;9.17;;
59062;SDS011;44851;45.648;9.004;2023-04-06T02:45:31;10.00;;;8.93;;
59062;SDS011;44851;45.648;9.004;2023-04-06T02:47:56;10.10;;;9.03;;
59062;SDS011;44851;45.648;9.004;2023-04-06T02:50:22;9.63;;;8.67;;
59062;SDS011;44851;45.648;9.004;2023-04-06T02:52:47;10.33;;;9.30;;
59062;SDS011;44851;45.648;9.004;2023-04-06T02:55:12;11.23;;;9.77;;
59062;SDS011;44851;45.648;9.004;2023-04-06T02:57:38;11.73;;;10.30;;
59062;SDS011;44851;45.648;9.004;2023-04-06T03:00:03;12.87;;;10.40;;
59062;SDS011;44851;45.648;9.004;2023-04-06T03:02:29;13.03;;;10.50;;
59062;SDS011;44851;45.648;9.004;2023-04-06T03:04:55;11.77;;;10.53;;
59062;SDS011;44851;45.648;9.004;2023-04-06T03:07:20;13.03;;;11.10;;
59062;SDS011;44851;45.648;9.004;2023-04-06T03:09:45;11.73;;;10.57;;
59062;SDS011;44851;45.648;9.004;2023-04-06T03:12:11;12.27;;;11.03;;
59062;SDS011;44851;45.648;9.004;2023-04-06T03:14:36;14.97;;;11.63;;
59062;SDS011;44851;45.648;9.004;2023-04-06T03:17:01;13.40;;;10.03;;
59062;SDS011;44851;45.648;9.004;2023-04-06T03:19:27;12.30;;;10.77;;
59062;SDS011;44851;45.648;9.004;2023-04-06T03:21:52;12.73;;;11.27;;
59062;SDS011;44851;45.648;9.004;2023-04-06T03:24:18;13.93;;;11.40;;
59062;SDS011;44851;45.648;9.004;2023-04-06T03:26:43;14.27;;;11.20;;
59062;SDS011;44851;45.648;9.004;2023-04-06T03:29:08;12.50;;;11.20;;
59062;SDS011;44851;45.648;9.004;2023-04-06T03:31:34;16.53;;;11.83;;
59062;SDS011;44851;45.648;9.004;2023-04-06T03:33:59;16.80;;;10.60;;
59062;SDS011;44851;45.648;9.004;2023-04-06T03:36:25;13.67;;;11.23;;
59062;SDS011;44851;45.648;9.004;2023-04-06T03:38:51;12.33;;;10.60;;
59062;SDS011;44851;45.648;9.004;2023-04-06T03:41:18;12.30;;;10.67;;
59062;SDS011;44851;45.648;9.004;2023-04-06T03:43:44;13.80;;;11.50;;
59062;SDS011;44851;45.648;9.004;2023-04-06T03:46:10;16.30;;;11.03;;
59062;SDS011;44851;45.648;9.004;2023-04-06T03:48:35;13.77;;;11.90;;
59062;SDS011;44851;45.648;9.004;2023-04-06T03:51:01;13.80;;;11.23;;
59062;SDS011;44851;45.648;9.004;2023-04-06T03:53:26;15.43;;;12.30;;
59062;SDS011;44851;45.648;9.004;2023-04-06T03:55:52;12.93;;;10.80;;
59062;SDS011;44851;45.648;9.004;2023-04-06T03:58:17;13.47;;;11.07;;
59062;SDS011;44851;45.648;9.004;2023-04-06T04:00:42;17.30;;;11.93;;
59062;SDS011;44851;45.648;9.004;2023-04-06T04:03:08;15.33;;;11.40;;
59062;SDS011;44851;45.648;9.004;2023-04-06T04:05:33;13.77;;;11.43;;
59062;SDS011;44851;45.648;9.004;2023-04-06T04:07:58;12.00;;;10.80;;
59062;SDS011;44851;45.648;9.004;2023-04-06T04:10:24;12.43;;;11.10;;
59062;SDS011;44851;45.648;9.004;2023-04-06T04:12:49;13.90;;;11.20;;
59062;SDS011;44851;45.648;9.004;2023-04-06T04:15:15;15.00;;;11.83;;
59062;SDS011;44851;45.648;9.004;2023-04-06T04:17:40;13.53;;;10.63;;
59062;SDS011;44851;45.648;9.004;2023-04-06T04:20:06;13.67;;;10.73;;
59062;SDS011;44851;45.648;9.004;2023-04-06T04:22:32;15.87;;;11.80;;
59062;SDS011;44851;45.648;9.004;2023-04-06T04:24:58;16.40;;;11.47;;
59062;SDS011;44851;45.648;9.004;2023-04-06T04:27:23;13.53;;;11.73;;
59062;SDS011;44851;45.648;9.004;2023-04-06T04:29:48;16.00;;;12.40;;
59062;SDS011;44851;45.648;9.004;2023-04-06T04:32:14;17.20;;;12.30;;
59062;SDS011;44851;45.648;9.004;2023-04-06T04:34:39;17.50;;;12.57;;
59062;SDS011;44851;45.648;9.004;2023-04-06T04:37:05;13.90;;;11.73;;
59062;SDS011;44851;45.648;9.004;2023-04-06T04:39:31;13.83;;;11.43;;
59062;SDS011;44851;45.648;9.004;2023-04-06T04:41:56;16.20;;;11.27;;
59062;SDS011;44851;45.648;9.004;2023-04-06T04:44:21;14.70;;;11.57;;
59062;SDS011;44851;45.648;9.004;2023-04-06T04:46:47;13.70;;;10.87;;
59062;SDS011;44851;45.648;9.004;2023-04-06T04:49:12;13.60;;;11.10;;
59062;SDS011;44851;45.648;9.004;2023-04-06T04:51:37;14.47;;;11.83;;
59062;SDS011;44851;45.648;9.004;2023-04-06T04:54:03;12.00;;;10.73;;
59062;SDS011;44851;45.648;9.004;2023-04-06T04:56:28;13.93;;;11.47;;
59062;SDS011;44851;45.648;9.004;2023-04-06T04:58:54;17.63;;;11.60;;
59062;SDS011;44851;45.648;9.004;2023-04-06T05:01:19;11.60;;;10.03;;
59062;SDS011;44851;45.648;9.004;2023-04-06T05:03:45;10.77;;;9.67;;
59062;SDS011;44851;45.648;9.004;2023-04-06T05:06:10;11.60;;;10.40;;
59062;SDS011;44851;45.648;9.004;2023-04-06T05:08:36;13.77;;;10.73;;
59062;SDS011;44851;45.648;9.004;2023-04-06T05:11:01;15.87;;;11.60;;
59062;SDS011;44851;45.648;9.004;2023-04-06T05:13:27;12.93;;;10.13;;
59062;SDS011;44851;45.648;9.004;2023-04-06T05:15:52;11.10;;;9.83;;
59062;SDS011;44851;45.648;9.004;2023-04-06T05:18:18;11.27;;;9.20;;
59062;SDS011;44851;45.648;9.004;2023-04-06T05:20:43;12.33;;;9.73;;
59062;SDS011;44851;45.648;9.004;2023-04-06T05:23:08;12.37;;;9.73;;
59062;SDS011;44851;45.648;9.004;2023-04-06T05:25:34;11.73;;;9.30;;
59062;SDS011;44851;45.648;9.004;2023-04-06T05:28:00;12.50;;;9.80;;
59062;SDS011;44851;45.648;9.004;2023-04-06T05:30:25;13.90;;;9.90;;
59062;SDS011;44851;45.648;9.004;2023-04-06T05:32:51;14.13;;;9.80;;
59062;SDS011;44851;45.648;9.004;2023-04-06T05:35:16;13.67;;;10.30;;
59062;SDS011;44851;45.648;9.004;2023-04-06T05:37:42;13.47;;;11.13;;
59062;SDS011;44851;45.648;9.004;2023-04-06T05:40:08;12.93;;;11.50;;
59062;SDS011;44851;45.648;9.004;2023-04-06T05:42:37;15.33;;;11.60;;
59062;SDS011;44851;45.648;9.004;2023-04-06T05:45:03;15.87;;;11.03;;
59062;SDS011;44851;45.648;9.004;2023-04-06T05:47:30;17.90;;;10.60;;
59062;SDS011;44851;45.648;9.004;2023-04-06T05:49:55;22.90;;;10.97;;
59062;SDS011;44851;45.648;9.004;2023-04-06T05:52:20;16.70;;;9.60;;
59062;SDS011;44851;45.648;9.004;2023-04-06T05:54:46;11.33;;;9.50;;
59062;SDS011;44851;45.648;9.004;2023-04-06T05:57:11;12.83;;;10.00;;
59062;SDS011;44851;45.648;9.004;2023-04-06T05:59:36;14.50;;;9.83;;
59062;SDS011;44851;45.648;9.004;2023-04-06T06:02:02;12.77;;;9.97;;
59062;SDS011;44851;45.648;9.004;2023-04-06T06:04:27;13.00;;;9.17;;
59062;SDS011;44851;45.648;9.004;2023-04-06T06:06:52;10.73;;;8.80;;
59062;SDS011;44851;45.648;9.004;2023-04-06T06:09:18;12.00;;;8.60;;
59062;SDS011;44851;45.648;9.004;2023-04-06T06:11:43;10.93;;;8.40;;
59062;SDS011;44851;45.648;9.004;2023-04-06T06:14:09;10.83;;;8.37;;
59062;SDS011;44851;45.648;9.004;2023-04-06T06:16:34;11.50;;;8.47;;
59062;SDS011;44851;45.648;9.004;2023-04-06T06:19:00;12.20;;;8.53;;
59062;SDS011;44851;45.648;9.004;2023-04-06T06:21:25;9.27;;;7.60;;
59062;SDS011;44851;45.648;9.004;2023-04-06T06:23:51;13.17;;;8.83;;
59062;SDS011;44851;45.648;9.004;2023-04-06T06:26:18;10.33;;;8.40;;
59062;SDS011;44851;45.648;9.004;2023-04-06T06:28:44;8.97;;;7.67;;
59062;SDS011;44851;45.648;9.004;2023-04-06T06:31:09;9.43;;;8.03;;
59062;SDS011;44851;45.648;9.004;2023-04-06T06:33:35;10.17;;;8.33;;
59062;SDS011;44851;45.648;9.004;2023-04-06T06:36:00;11.57;;;7.87;;
59062;SDS011;44851;45.648;9.004;2023-04-06T06:38:26;9.13;;;8.23;;
59062;SDS011;44851;45.648;9.004;2023-04-06T06:40:51;9.33;;;7.97;;
59062;SDS011;44851;45.648;9.004;2023-04-06T06:43:17;10.03;;;7.63;;
59062;SDS011;44851;45.648;9.004;2023-04-06T06:45:43;9.70;;;8.17;;
59062;SDS011;44851;45.648;9.004;2023-04-06T06:48:09;9.57;;;7.37;;
59062;SDS011;44851;45.648;9.004;2023-04-06T06:50:34;8.43;;;7.63;;
59062;SDS011;44851;45.648;9.004;2023-04-06T06:53:00;8.40;;;7.53;;
59062;SDS011;44851;45.648;9.004;2023-04-06T06:55:25;9.37;;;7.80;;
59062;SDS011;44851;45.648;9.004;2023-04-06T06:57:51;8.13;;;7.10;;
59062;SDS011;44851;45.648;9.004;2023-04-06T07:00:17;9.10;;;7.30;;
59062;SDS011;44851;45.648;9.004;2023-04-06T07:02:45;11.50;;;6.93;;
59062;SDS011;44851;45.648;9.004;2023-04-06T07:05:10;8.90;;;7.30;;
59062;SDS011;44851;45.648;9.004;2023-04-06T07:07:36;11.53;;;7.97;;
59062;SDS011;44851;45.648;9.004;2023-04-06T07:10:01;10.77;;;7.73;;
59062;SDS011;44851;45.648;9.004;2023-04-06T07:25:55;16.37;;;7.23;;
59062;SDS011;44851;45.648;9.004;2023-04-06T07:28:21;8.53;;;6.63;;
59062;SDS011;44851;45.648;9.004;2023-04-06T07:30:47;6.67;;;5.93;;
59062;SDS011;44851;45.648;9.004;2023-04-06T07:33:12;7.53;;;6.00;;
59062;SDS011;44851;45.648;9.004;2023-04-06T07:35:38;7.17;;;6.47;;
59062;SDS011;44851;45.648;9.004;2023-04-06T07:38:05;33.53;;;9.87;;
59062;SDS011;44851;45.648;9.004;2023-04-06T07:40:31;78.77;;;20.90;;
59062;SDS011;44851;45.648;9.004;2023-04-06T07:42:59;33.53;;;10.97;;
59062;SDS011;44851;45.648;9.004;2023-04-06T07:45:24;6.93;;;5.60;;
59062;SDS011;44851;45.648;9.004;2023-04-06T07:47:50;6.37;;;5.10;;
59062;SDS011;44851;45.648;9.004;2023-04-06T07:50:15;6.97;;;5.53;;
59062;SDS011;44851;45.648;9.004;2023-04-06T07:52:41;7.53;;;6.07;;
59062;SDS011;44851;45.648;9.004;2023-04-06T07:55:07;5.23;;;4.73;;
59062;SDS011;44851;45.648;9.004;2023-04-06T07:57:32;5.87;;;5.30;;
59062;SDS011;44851;45.648;9.004;2023-04-06T07:59:58;105.37;;;17.37;;
59062;SDS011;44851;45.648;9.004;2023-04-06T08:02:23;10.30;;;5.57;;
59062;SDS011;44851;45.648;9.004;2023-04-06T08:04:49;11.80;;;6.17;;
59062;SDS011;44851;45.648;9.004;2023-04-06T08:07:14;42.57;;;10.07;;
59062;SDS011;44851;45.648;9.004;2023-04-06T08:09:40;6.27;;;4.90;;
59062;SDS011;44851;45.648;9.004;2023-04-06T08:12:05;5.80;;;5.00;;
59062;SDS011;44851;45.648;9.004;2023-04-06T08:14:31;6.90;;;5.30;;
59062;SDS011;44851;45.648;9.004;2023-04-06T08:16:56;7.47;;;6.77;;
59062;SDS011;44851;45.648;9.004;2023-04-06T08:19:22;9.10;;;7.43;;
59062;SDS011;44851;45.648;9.004;2023-04-06T08:21:48;7.63;;;5.77;;
59062;SDS011;44851;45.648;9.004;2023-04-06T08:24:14;13.17;;;6.20;;
59062;SDS011;44851;45.648;9.004;2023-04-06T08:26:40;11.97;;;6.33;;
59062;SDS011;44851;45.648;9.004;2023-04-06T08:29:05;6.00;;;5.40;;
59062;SDS011;44851;45.648;9.004;2023-04-06T08:31:34;19.43;;;7.13;;
59062;SDS011;44851;45.648;9.004;2023-04-06T08:34:00;8.73;;;7.20;;
59062;SDS011;44851;45.648;9.004;2023-04-06T08:36:26;8.03;;;5.50;;
59062;SDS011;44851;45.648;9.004;2023-04-06T08:38:52;15.50;;;6.20;;
59062;SDS011;44851;45.648;9.004;2023-04-06T08:41:18;7.97;;;6.20;;
59062;SDS011;44851;45.648;9.004;2023-04-06T08:46:24;10.23;;;6.87;;
59062;SDS011;44851;45.648;9.004;2023-04-06T08:48:58;10.43;;;8.10;;
59062;SDS011;44851;45.648;9.004;2023-04-06T08:51:28;7.93;;;7.13;;
59062;SDS011;44851;45.648;9.004;2023-04-06T08:53:56;6.87;;;6.27;;
59062;SDS011;44851;45.648;9.004;2023-04-06T08:56:24;6.87;;;6.03;;
59062;SDS011;44851;45.648;9.004;2023-04-06T08:58:50;9.13;;;6.57;;
59062;SDS011;44851;45.648;9.004;2023-04-06T09:01:18;7.60;;;6.90;;
59062;SDS011;44851;45.648;9.004;2023-04-06T09:03:46;7.97;;;6.43;;
59062;SDS011;44851;45.648;9.004;2023-04-06T09:06:14;9.10;;;7.97;;
59062;SDS011;44851;45.648;9.004;2023-04-06T09:08:40;7.80;;;6.40;;
59062;SDS011;44851;45.648;9.004;2023-04-06T09:11:06;6.80;;;6.13;;
59062;SDS011;44851;45.648;9.004;2023-04-06T09:13:31;8.47;;;7.57;;
59062;SDS011;44851;45.648;9.004;2023-04-06T09:16:10;10.43;;;7.50;;
59062;SDS011;44851;45.648;9.004;2023-04-06T09:18:35;9.40;;;7.67;;
59062;SDS011;44851;45.648;9.004;2023-04-06T09:21:04;7.37;;;6.53;;
59062;SDS011;44851;45.648;9.004;2023-04-06T09:23:31;7.37;;;6.50;;
59062;SDS011;44851;45.648;9.004;2023-04-06T09:28:48;11.53;;;7.50;;
59062;SDS011;44851;45.648;9.004;2023-04-06T09:31:25;9.60;;;8.60;;
59062;SDS011;44851;45.648;9.004;2023-04-06T09:33:56;8.80;;;7.40;;
59062;SDS011;44851;45.648;9.004;2023-04-06T09:36:32;8.40;;;7.60;;
59062;SDS011;44851;45.648;9.004;2023-04-06T09:38:59;9.83;;;7.33;;
59062;SDS011;44851;45.648;9.004;2023-04-06T09:44:03;8.27;;;7.47;;
59062;SDS011;44851;45.648;9.004;2023-04-06T09:46:32;11.07;;;7.63;;
59062;SDS011;44851;45.648;9.004;2023-04-06T09:49:00;9.63;;;7.17;;
59062;SDS011;44851;45.648;9.004;2023-04-06T09:51:27;10.13;;;7.53;;
59062;SDS011;44851;45.648;9.004;2023-04-06T09:54:01;9.87;;;7.97;;
59062;SDS011;44851;45.648;9.004;2023-04-06T09:56:30;11.77;;;7.93;;
59062;SDS011;44851;45.648;9.004;2023-04-06T09:59:02;8.50;;;7.50;;
59062;SDS011;44851;45.648;9.004;2023-04-06T10:01:34;8.30;;;7.50;;
59062;SDS011;44851;45.648;9.004;2023-04-06T10:04:07;8.77;;;7.73;;
59062;SDS011;44851;45.648;9.004;2023-04-06T10:06:43;9.00;;;8.20;;
59062;SDS011;44851;45.648;9.004;2023-04-06T10:09:09;8.87;;;7.97;;
59062;SDS011;44851;45.648;9.004;2023-04-06T10:11:36;12.07;;;7.73;;
59062;SDS011;44851;45.648;9.004;2023-04-06T10:14:02;8.73;;;7.83;;
59062;SDS011;44851;45.648;9.004;2023-04-06T10:16:27;10.77;;;8.70;;
59062;SDS011;44851;45.648;9.004;2023-04-06T10:18:56;9.40;;;8.50;;
59062;SDS011;44851;45.648;9.004;2023-04-06T10:21:27;8.80;;;8.00;;
59062;SDS011;44851;45.648;9.004;2023-04-06T10:23:59;10.60;;;8.20;;
59062;SDS011;44851;45.648;9.004;2023-04-06T10:26:26;9.37;;;8.43;;
59062;SDS011;44851;45.648;9.004;2023-04-06T10:28:51;9.97;;;8.57;;
59062;SDS011;44851;45.648;9.004;2023-04-06T10:31:27;9.30;;;8.30;;
59062;SDS011;44851;45.648;9.004;2023-04-06T10:34:00;12.20;;;8.23;;
59062;SDS011;44851;45.648;9.004;2023-04-06T10:36:27;10.07;;;8.67;;
59062;SDS011;44851;45.648;9.004;2023-04-06T10:38:57;9.50;;;8.57;;
59062;SDS011;44851;45.648;9.004;2023-04-06T10:41:31;9.97;;;8.93;;
59062;SDS011;44851;45.648;9.004;2023-04-06T10:43:58;10.33;;;9.27;;
59062;SDS011;44851;45.648;9.004;2023-04-06T10:46:24;10.00;;;9.10;;
59062;SDS011;44851;45.648;9.004;2023-04-06T10:48:51;10.57;;;9.37;;
59062;SDS011;44851;45.648;9.004;2023-04-06T10:51:17;10.07;;;9.07;;
59062;SDS011;44851;45.648;9.004;2023-04-06T10:53:47;9.70;;;8.80;;
59062;SDS011;44851;45.648;9.004;2023-04-06T10:56:17;10.73;;;9.63;;
59062;SDS011;44851;45.648;9.004;2023-04-06T10:58:43;11.03;;;9.57;;
59062;SDS011;44851;45.648;9.004;2023-04-06T11:01:11;10.77;;;9.50;;
59062;SDS011;44851;45.648;9.004;2023-04-06T11:03:47;11.43;;;9.83;;
59062;SDS011;44851;45.648;9.004;2023-04-06T11:06:21;10.47;;;9.37;;
59062;SDS011;44851;45.648;9.004;2023-04-06T11:08:47;11.10;;;10.00;;
59062;SDS011;44851;45.648;9.004;2023-04-06T11:11:13;11.57;;;10.17;;
59062;SDS011;44851;45.648;9.004;2023-04-06T11:13:44;12.10;;;10.83;;
59062;SDS011;44851;45.648;9.004;2023-04-06T11:18:55;11.23;;;10.23;;
59062;SDS011;44851;45.648;9.004;2023-04-06T11:21:37;11.97;;;10.77;;
59062;SDS011;44851;45.648;9.004;2023-04-06T11:24:08;11.30;;;10.17;;
59062;SDS011;44851;45.648;9.004;2023-04-06T11:26:39;11.30;;;10.10;;
59062;SDS011;44851;45.648;9.004;2023-04-06T11:29:06;12.13;;;10.80;;
59062;SDS011;44851;45.648;9.004;2023-04-06T11:31:37;10.60;;;9.00;;
59062;SDS011;44851;45.648;9.004;2023-04-06T11:34:08;10.90;;;9.83;;
59062;SDS011;44851;45.648;9.004;2023-04-06T11:36:39;10.93;;;9.83;;
59062;SDS011;44851;45.648;9.004;2023-04-06T11:39:06;10.70;;;9.60;;
59062;SDS011;44851;45.648;9.004;2023-04-06T11:41:33;12.47;;;11.17;;
59062;SDS011;44851;45.648;9.004;2023-04-06T11:44:00;12.20;;;10.50;;
59062;SDS011;44851;45.648;9.004;2023-04-06T11:46:27;11.80;;;10.40;;
59062;SDS011;44851;45.648;9.004;2023-04-06T11:48:53;12.77;;;10.83;;
59062;SDS011;44851;45.648;9.004;2023-04-06T11:51:23;13.40;;;11.37;;
59062;SDS011;44851;45.648;9.004;2023-04-06T11:53:49;12.77;;;11.47;;
59062;SDS011;44851;45.648;9.004;2023-04-06T11:56:27;13.20;;;11.87;;
59062;SDS011;44851;45.648;9.004;2023-04-06T11:58:54;12.10;;;10.83;;
59062;SDS011;44851;45.648;9.004;2023-04-06T12:01:21;14.23;;;12.37;;
59062;SDS011;44851;45.648;9.004;2023-04-06T12:03:47;13.53;;;11.47;;
59062;SDS011;44851;45.648;9.004;2023-04-06T12:06:13;12.53;;;11.30;;
59062;SDS011;44851;45.648;9.004;2023-04-06T12:08:38;13.17;;;11.73;;
59062;SDS011;44851;45.648;9.004;2023-04-06T12:11:04;12.33;;;11.10;;
59062;SDS011;44851;45.648;9.004;2023-04-06T12:13:30;12.97;;;11.67;;
59062;SDS011;44851;45.648;9.004;2023-04-06T12:15:55;14.63;;;13.17;;
59062;SDS011;44851;45.648;9.004;2023-04-06T12:18:21;14.73;;;12.30;;
59062;SDS011;44851;45.648;9.004;2023-04-06T12:20:46;14.60;;;12.10;;
59062;SDS011;44851;45.648;9.004;2023-04-06T12:23:12;12.60;;;11.30;;
59062;SDS011;44851;45.648;9.004;2023-04-06T12:25:39;12.33;;;11.03;;
59062;SDS011;44851;45.648;9.004;2023-04-06T12:28:04;16.27;;;12.50;;
59062;SDS011;44851;45.648;9.004;2023-04-06T12:30:30;13.70;;;12.30;;
59062;SDS011;44851;45.648;9.004;2023-04-06T12:32:57;12.40;;;11.10;;
59062;SDS011;44851;45.648;9.004;2023-04-06T12:35:22;15.03;;;11.77;;
59062;SDS011;44851;45.648;9.004;2023-04-06T12:37:48;12.43;;;11.07;;
59062;SDS011;44851;45.648;9.004;2023-04-06T12:40:13;13.20;;;11.83;;
59062;SDS011;44851;45.648;9.004;2023-04-06T12:42:39;12.53;;;11.23;;
59062;SDS011;44851;45.648;9.004;2023-04-06T12:45:07;14.43;;;11.90;;
59062;SDS011;44851;45.648;9.004;2023-04-06T12:47:33;12.80;;;11.60;;
59062;SDS011;44851;45.648;9.004;2023-04-06T12:49:58;13.33;;;11.87;;
59062;SDS011;44851;45.648;9.004;2023-04-06T12:52:24;13.10;;;11.80;;
59062;SDS011;44851;45.648;9.004;2023-04-06T12:54:50;13.37;;;12.07;;
59062;SDS011;44851;45.648;9.004;2023-04-06T12:57:16;12.53;;;11.13;;
59062;SDS011;44851;45.648;9.004;2023-04-06T12:59:44;16.07;;;12.10;;
59062;SDS011;44851;45.648;9.004;2023-04-06T13:02:11;20.50;;;15.27;;
59062;SDS011;44851;45.648;9.004;2023-04-06T13:04:36;16.43;;;12.50;;
59062;SDS011;44851;45.648;9.004;2023-04-06T13:07:02;13.97;;;12.57;;
59062;SDS011;44851;45.648;9.004;2023-04-06T13:09:27;14.30;;;12.80;;
59062;SDS011;44851;45.648;9.004;2023-04-06T13:11:53;16.30;;;12.97;;
59062;SDS011;44851;45.648;9.004;2023-04-06T13:14:18;14.53;;;11.73;;
59062;SDS011;44851;45.648;9.004;2023-04-06T13:16:43;13.07;;;11.87;;
59062;SDS011;44851;45.648;9.004;2023-04-06T13:19:09;13.43;;;12.13;;
59062;SDS011;44851;45.648;9.004;2023-04-06T13:21:35;13.67;;;12.27;;
59062;SDS011;44851;45.648;9.004;2023-04-06T13:24:01;13.57;;;11.50;;
59062;SDS011;44851;45.648;9.004;2023-04-06T13:26:26;14.67;;;12.17;;
59062;SDS011;44851;45.648;9.004;2023-04-06T13:28:53;15.43;;;13.70;;
59062;SDS011;44851;45.648;9.004;2023-04-06T13:31:21;14.60;;;13.17;;
59062;SDS011;44851;45.648;9.004;2023-04-06T13:33:46;15.10;;;13.57;;
59062;SDS011;44851;45.648;9.004;2023-04-06T13:36:12;15.33;;;13.60;;
59062;SDS011;44851;45.648;9.004;2023-04-06T13:38:37;15.80;;;13.40;;
59062;SDS011;44851;45.648;9.004;2023-04-06T13:41:03;13.40;;;12.10;;
59062;SDS011;44851;45.648;9.004;2023-04-06T13:43:29;13.10;;;11.80;;
59062;SDS011;44851;45.648;9.004;2023-04-06T13:45:55;12.87;;;11.57;;
59062;SDS011;44851;45.648;9.004;2023-04-06T13:48:23;12.63;;;11.33;;
59062;SDS011;44851;45.648;9.004;2023-04-06T13:50:49;12.70;;;11.40;;
59062;SDS011;44851;45.648;9.004;2023-04-06T13:53:14;13.67;;;12.07;;
59062;SDS011;44851;45.648;9.004;2023-04-06T13:55:40;13.30;;;11.13;;
59062;SDS011;44851;45.648;9.004;2023-04-06T13:58:06;11.83;;;10.63;;
59062;SDS011;44851;45.648;9.004;2023-04-06T14:00:31;12.30;;;11.00;;
59062;SDS011;44851;45.648;9.004;2023-04-06T14:02:57;13.03;;;11.60;;
59062;SDS011;44851;45.648;9.004;2023-04-06T14:05:22;27.57;;;14.03;;
59062;SDS011;44851;45.648;9.004;2023-04-06T14:07:49;13.67;;;10.70;;
59062;SDS011;44851;45.648;9.004;2023-04-06T14:10:14;11.70;;;10.50;;
59062;SDS011;44851;45.648;9.004;2023-04-06T14:12:41;11.50;;;10.10;;
59062;SDS011;44851;45.648;9.004;2023-04-06T14:15:08;10.43;;;9.33;;
59062;SDS011;44851;45.648;9.004;2023-04-06T14:17:35;10.70;;;9.60;;
59062;SDS011;44851;45.648;9.004;2023-04-06T14:20:01;11.20;;;9.00;;
59062;SDS011;44851;45.648;9.004;2023-04-06T14:22:27;10.27;;;8.43;;
59062;SDS011;44851;45.648;9.004;2023-04-06T14:24:52;11.93;;;8.97;;
59062;SDS011;44851;45.648;9.004;2023-04-06T14:27:18;10.60;;;8.80;;
59062;SDS011;44851;45.648;9.004;2023-04-06T14:29:43;10.00;;;9.00;;
59062;SDS011;44851;45.648;9.004;2023-04-06T14:32:09;13.50;;;10.30;;
59062;SDS011;44851;45.648;9.004;2023-04-06T14:34:37;12.23;;;9.20;;
59062;SDS011;44851;45.648;9.004;2023-04-06T14:37:03;32.23;;;13.70;;
59062;SDS011;44851;45.648;9.004;2023-04-06T14:39:28;13.57;;;9.90;;
59062;SDS011;44851;45.648;9.004;2023-04-06T14:41:54;11.37;;;9.60;;
59062;SDS011;44851;45.648;9.004;2023-04-06T14:44:20;10.40;;;9.30;;
59062;SDS011;44851;45.648;9.004;2023-04-06T14:46:46;11.00;;;9.00;;
59062;SDS011;44851;45.648;9.004;2023-04-06T14:49:11;10.27;;;9.23;;
59062;SDS011;44851;45.648;9.004;2023-04-06T14:51:37;13.17;;;8.93;;